nws-alerts: Checking more than four warning/county codes can delay the loading of your pages. You should use a cron job to get the data.
EllijayWeather Station Historical Data
Daily Summary for March 13, 2019 Units:  English    Metric   Both
Daily Weekly Monthly Yearly Custom
  High: Low: Average:
Temperature: 63.7 °F 45.1 °F 56.3 °F
Dew Point: 43.7 °F 34.9 °F 39.5 °F
Humidity: 88% 40% 55%
Wind Speed: 6.0mph 0.0mph 0.4mph
Wind Gust: 11.0mph - -
Wind- - SE
Pressure: 30.31 in 30.16 in -
Precipitation: 0.00 in    
Historical Graphs
 
 
Tabular Data for March 13, 2019
Time Temperature Dew Point Pressure Wind Wind Speed Wind Gust Humidity Rainfall Rate (Hourly) solar
00:04 45.3 °F 41.4 °F 30.30 in Calm     86% 0.00 in meteobridge W/m2
00:09 45.1 °F 41.2 °F 30.30 in Calm     86% 0.00 in meteobridge W/m2
00:14 45.1 °F 41.2 °F 30.30 in Calm     86% 0.00 in meteobridge W/m2
00:19 45.1 °F 41.2 °F 30.30 in Calm     86% 0.00 in meteobridge W/m2
00:24 45.1 °F 41.2 °F 30.31 in Calm     86% 0.00 in meteobridge W/m2
00:29 45.1 °F 41.5 °F 30.31 in Calm     87% 0.00 in meteobridge W/m2
00:34 45.1 °F 41.2 °F 30.31 in Calm     86% 0.00 in meteobridge W/m2
00:39 45.1 °F 41.2 °F 30.31 in Calm     86% 0.00 in meteobridge W/m2
00:44 45.1 °F 41.2 °F 30.30 in Calm     86% 0.00 in meteobridge W/m2
00:49 45.1 °F 41.5 °F 30.29 in Calm     87% 0.00 in meteobridge W/m2
00:54 45.3 °F 41.9 °F 30.28 in Calm     88% 0.00 in meteobridge W/m2
00:59 45.3 °F 41.9 °F 30.28 in Calm     88% 0.00 in meteobridge W/m2
01:04 45.3 °F 41.7 °F 30.28 in Calm     87% 0.00 in meteobridge W/m2
01:09 45.5 °F 41.9 °F 30.27 in Calm     87% 0.00 in meteobridge W/m2
01:14 45.7 °F 42.1 °F 30.27 in Calm     87% 0.00 in meteobridge W/m2
01:19 45.7 °F 41.7 °F 30.27 in Calm     86% 0.00 in meteobridge W/m2
01:24 45.9 °F 42.3 °F 30.26 in Calm     87% 0.00 in meteobridge W/m2
01:29 45.9 °F 41.9 °F 30.26 in Calm     86% 0.00 in meteobridge W/m2
01:34 46.0 °F 42.4 °F 30.26 in Calm     87% 0.00 in meteobridge W/m2
01:39 46.0 °F 42.4 °F 30.25 in Calm     87% 0.00 in meteobridge W/m2
01:44 46.2 °F 42.3 °F 30.25 in Calm     86% 0.00 in meteobridge W/m2
01:49 46.2 °F 42.3 °F 30.25 in Calm     86% 0.00 in meteobridge W/m2
01:54 46.6 °F 42.6 °F 30.25 in Calm     86% 0.00 in meteobridge W/m2
01:59 46.8 °F 42.4 °F 30.24 in Calm     85% 0.00 in meteobridge W/m2
02:04 46.9 °F 42.6 °F 30.23 in Calm     85% 0.00 in meteobridge W/m2
02:09 47.5 °F 42.8 °F 30.23 in Calm     84% 0.00 in meteobridge W/m2
02:14 48.0 °F 43.3 °F 30.24 in Calm     84% 0.00 in meteobridge W/m2
02:19 48.9 °F 43.7 °F 30.24 in Calm     82% 0.00 in meteobridge W/m2
02:24 49.5 °F 42.8 °F 30.24 in Calm     78% 0.00 in meteobridge W/m2
02:29 50.2 °F 43.3 °F 30.24 in Calm     77% 0.00 in meteobridge W/m2
02:34 50.9 °F 43.0 °F 30.24 in Calm     74% 0.00 in meteobridge W/m2
02:39 51.8 °F 43.3 °F 30.23 in Calm     73% 0.00 in meteobridge W/m2
02:44 52.5 °F 43.0 °F 30.23 in Calm     70% 0.00 in meteobridge W/m2
02:49 53.6 °F 42.4 °F 30.24 in Calm   1.0 mph 66% 0.00 in meteobridge W/m2
02:54 54.1 °F 43.3 °F 30.24 in SE 4.0 mph 4.0 mph 67% 0.00 in meteobridge W/m2
02:59 54.9 °F 42.4 °F 30.23 in Calm   4.0 mph 63% 0.00 in meteobridge W/m2
03:04 55.0 °F 41.9 °F 30.23 in Calm   2.0 mph 61% 0.00 in meteobridge W/m2
03:09 55.6 °F 42.8 °F 30.24 in Calm   5.0 mph 62% 0.00 in meteobridge W/m2
03:14 55.8 °F 43.0 °F 30.23 in Calm     62% 0.00 in meteobridge W/m2
03:19 55.6 °F 41.9 °F 30.23 in Calm   1.0 mph 60% 0.00 in meteobridge W/m2
03:24 55.8 °F 42.1 °F 30.23 in SE 0.9 mph 5.0 mph 60% 0.00 in meteobridge W/m2
03:29 55.9 °F 41.4 °F 30.22 in SE 4.0 mph 11.0 mph 58% 0.00 in meteobridge W/m2
03:34 56.5 °F 41.9 °F 30.22 in SE 0.9 mph 4.0 mph 58% 0.00 in meteobridge W/m2
03:39 56.5 °F 42.3 °F 30.22 in Calm   4.0 mph 59% 0.00 in meteobridge W/m2
03:44 56.1 °F 41.5 °F 30.23 in SE 2.0 mph 4.0 mph 58% 0.00 in meteobridge W/m2
03:49 56.1 °F 41.2 °F 30.23 in Calm   2.0 mph 57% 0.00 in meteobridge W/m2
03:54 55.9 °F 41.9 °F 30.23 in Calm     59% 0.00 in meteobridge W/m2
03:59 55.8 °F 41.7 °F 30.24 in Calm     59% 0.00 in meteobridge W/m2
04:04 55.2 °F 41.2 °F 30.24 in Calm     59% 0.00 in meteobridge W/m2
04:09 55.0 °F 41.4 °F 30.23 in SE 0.9 mph 4.0 mph 60% 0.00 in meteobridge W/m2
04:14 55.0 °F 41.4 °F 30.23 in Calm   2.0 mph 60% 0.00 in meteobridge W/m2
04:19 55.0 °F 41.0 °F 30.24 in ESE 0.9 mph 1.0 mph 59% 0.00 in meteobridge W/m2
04:24 55.0 °F 41.0 °F 30.24 in Calm     59% 0.00 in meteobridge W/m2
04:29 54.9 °F 41.2 °F 30.24 in Calm     60% 0.00 in meteobridge W/m2
04:34 54.7 °F 40.6 °F 30.24 in Calm   2.0 mph 59% 0.00 in meteobridge W/m2
04:39 54.3 °F 41.5 °F 30.24 in Calm     62% 0.00 in meteobridge W/m2
04:44 54.1 °F 40.6 °F 30.24 in Calm   2.0 mph 60% 0.00 in meteobridge W/m2
04:49 54.1 °F 40.1 °F 30.24 in Calm   6.0 mph 59% 0.00 in meteobridge W/m2
04:54 54.3 °F 39.9 °F 30.24 in Calm   2.0 mph 58% 0.00 in meteobridge W/m2
04:59 54.1 °F 40.1 °F 30.24 in East 2.0 mph 6.0 mph 59% 0.00 in meteobridge W/m2
05:04 54.1 °F 40.1 °F 30.24 in Calm     59% 0.00 in meteobridge W/m2
05:09 54.0 °F 39.9 °F 30.24 in Calm     59% 0.00 in meteobridge W/m2
05:14 53.6 °F 40.1 °F 30.24 in Calm   1.0 mph 60% 0.00 in meteobridge W/m2
05:19 53.4 °F 39.9 °F 30.24 in Calm   1.0 mph 60% 0.00 in meteobridge W/m2
05:24 53.2 °F 39.7 °F 30.24 in SE 2.0 mph 2.0 mph 60% 0.00 in meteobridge W/m2
05:29 53.1 °F 39.9 °F 30.24 in Calm     61% 0.00 in meteobridge W/m2
05:34 53.1 °F 39.6 °F 30.24 in Calm     60% 0.00 in meteobridge W/m2
05:39 52.9 °F 39.7 °F 30.24 in Calm     61% 0.00 in meteobridge W/m2
05:44 52.5 °F 39.9 °F 30.24 in Calm   2.0 mph 62% 0.00 in meteobridge W/m2
05:49 52.3 °F 39.7 °F 30.24 in Calm     62% 0.00 in meteobridge W/m2
05:54 52.2 °F 39.2 °F 30.24 in SE 2.0 mph 5.0 mph 61% 0.00 in meteobridge W/m2
05:59 52.3 °F 39.4 °F 30.25 in Calm     61% 0.00 in meteobridge W/m2
06:04 52.3 °F 39.7 °F 30.24 in Calm     62% 0.00 in meteobridge W/m2
06:09 52.2 °F 39.9 °F 30.24 in Calm   1.0 mph 63% 0.00 in meteobridge W/m2
06:14 52.2 °F 39.9 °F 30.24 in Calm     63% 0.00 in meteobridge W/m2
06:19 51.6 °F 39.9 °F 30.24 in Calm     64% 0.00 in meteobridge W/m2
06:24 51.3 °F 39.6 °F 30.23 in Calm   1.0 mph 64% 0.00 in meteobridge W/m2
06:29 51.3 °F 39.6 °F 30.24 in Calm     64% 0.00 in meteobridge W/m2
06:34 51.3 °F 39.0 °F 30.24 in Calm     63% 0.00 in meteobridge W/m2
06:39 51.4 °F 39.7 °F 30.24 in Calm     64% 0.00 in meteobridge W/m2
06:44 51.1 °F 39.4 °F 30.24 in Calm   1.0 mph 64% 0.00 in meteobridge W/m2
06:49 50.9 °F 39.6 °F 30.24 in Calm   2.0 mph 65% 0.00 in meteobridge W/m2
06:54 51.1 °F 40.1 °F 30.24 in Calm     66% 0.00 in meteobridge W/m2
06:59 50.7 °F 39.4 °F 30.24 in Calm     65% 0.00 in meteobridge W/m2
07:04 50.5 °F 39.2 °F 30.24 in Calm     65% 0.00 in meteobridge W/m2
07:09 50.5 °F 40.5 °F 30.24 in Calm     68% 0.00 in meteobridge W/m2
07:14 50.2 °F 39.6 °F 30.24 in Calm   4.0 mph 67% 0.00 in meteobridge W/m2
07:19 50.2 °F 39.6 °F 30.24 in Calm     67% 0.00 in meteobridge W/m2
07:24 50.2 °F 39.2 °F 30.25 in SE 0.9 mph 1.0 mph 66% 0.00 in meteobridge W/m2
07:29 50.5 °F 39.6 °F 30.25 in Calm     66% 0.00 in meteobridge W/m2
07:34 50.5 °F 39.2 °F 30.25 in Calm   2.0 mph 65% 0.00 in meteobridge W/m2
07:39 50.5 °F 39.6 °F 30.25 in Calm     66% 0.00 in meteobridge W/m2
07:44 50.5 °F 40.5 °F 30.26 in Calm     68% 0.00 in meteobridge W/m2
07:49 50.5 °F 39.2 °F 30.25 in Calm   4.0 mph 65% 0.00 in meteobridge W/m2
07:54 50.7 °F 39.7 °F 30.25 in Calm     66% 0.00 in meteobridge W/m2
07:59 50.7 °F 39.0 °F 30.25 in Calm   4.0 mph 64% 0.00 in meteobridge W/m2
08:04 50.7 °F 39.7 °F 30.25 in Calm   1.0 mph 66% 0.00 in meteobridge W/m2
08:09 50.5 °F 39.2 °F 30.25 in Calm   2.0 mph 65% 0.00 in meteobridge W/m2
08:14 50.5 °F 39.9 °F 30.25 in Calm     67% 0.00 in meteobridge W/m2
08:19 50.4 °F 39.0 °F 30.25 in Calm   1.0 mph 65% 0.00 in meteobridge W/m2
08:24 50.5 °F 38.8 °F 30.25 in Calm   2.0 mph 64% 0.00 in meteobridge W/m2
08:29 50.7 °F 39.0 °F 30.25 in Calm   1.0 mph 64% 0.00 in meteobridge W/m2
08:34 51.3 °F 38.7 °F 30.25 in Calm   4.0 mph 62% 0.00 in meteobridge W/m2
08:39 51.6 °F 39.0 °F 30.25 in Calm   4.0 mph 62% 0.00 in meteobridge W/m2
08:44 51.8 °F 39.2 °F 30.26 in Calm   1.0 mph 62% 0.00 in meteobridge W/m2
08:49 52.0 °F 40.1 °F 30.25 in Calm     64% 0.00 in meteobridge W/m2
08:54 51.8 °F 39.2 °F 30.25 in SE 2.0 mph 5.0 mph 62% 0.00 in meteobridge W/m2
08:59 52.2 °F 39.2 °F 30.25 in Calm   1.0 mph 61% 0.00 in meteobridge W/m2
09:04 52.3 °F 37.9 °F 30.25 in SE 0.9 mph 5.0 mph 58% 0.00 in meteobridge W/m2
09:09 52.9 °F 38.5 °F 30.26 in SE 2.0 mph 5.0 mph 58% 0.00 in meteobridge W/m2
09:14 53.2 °F 38.5 °F 30.26 in Calm   4.0 mph 57% 0.00 in meteobridge W/m2
09:19 53.4 °F 38.1 °F 30.25 in SE 0.9 mph 6.0 mph 56% 0.00 in meteobridge W/m2
09:24 53.6 °F 38.3 °F 30.25 in SE 4.9 mph 6.0 mph 56% 0.00 in meteobridge W/m2
09:29 53.8 °F 37.9 °F 30.25 in ESE 0.9 mph 6.0 mph 55% 0.00 in meteobridge W/m2
09:34 53.8 °F 38.5 °F 30.25 in SE 0.9 mph 2.0 mph 56% 0.00 in meteobridge W/m2
09:39 53.8 °F 39.4 °F 30.26 in SE 0.9 mph 2.0 mph 58% 0.00 in meteobridge W/m2
09:44 54.0 °F 38.7 °F 30.25 in SE 0.9 mph 4.0 mph 56% 0.00 in meteobridge W/m2
09:49 54.0 °F 38.1 °F 30.25 in Calm   4.0 mph 55% 0.00 in meteobridge W/m2
09:54 54.1 °F 38.3 °F 30.26 in SE 4.9 mph 5.0 mph 55% 0.00 in meteobridge W/m2
09:59 54.3 °F 37.6 °F 30.25 in Calm   4.0 mph 53% 0.00 in meteobridge W/m2
10:04 54.5 °F 37.8 °F 30.25 in ESE 6.0 mph 6.0 mph 53% 0.00 in meteobridge W/m2
10:09 54.5 °F 37.8 °F 30.24 in Calm   2.0 mph 53% 0.00 in meteobridge W/m2
10:14 54.7 °F 38.3 °F 30.24 in Calm   5.0 mph 54% 0.00 in meteobridge W/m2
10:19 55.0 °F 38.3 °F 30.24 in SE 4.0 mph 5.0 mph 53% 0.00 in meteobridge W/m2
10:24 55.0 °F 38.3 °F 30.24 in Calm   4.0 mph 53% 0.00 in meteobridge W/m2
10:29 55.0 °F 38.3 °F 30.25 in Calm   4.0 mph 53% 0.00 in meteobridge W/m2
10:34 54.9 °F 38.5 °F 30.25 in Calm   4.0 mph 54% 0.00 in meteobridge W/m2
10:39 54.9 °F 38.5 °F 30.24 in ESE 4.0 mph 4.0 mph 54% 0.00 in meteobridge W/m2
10:44 54.9 °F 39.0 °F 30.24 in Calm     55% 0.00 in meteobridge W/m2
10:49 54.9 °F 39.0 °F 30.23 in Calm   1.0 mph 55% 0.00 in meteobridge W/m2
10:54 54.7 °F 38.8 °F 30.22 in SE 4.0 mph 4.0 mph 55% 0.00 in meteobridge W/m2
10:59 54.7 °F 39.4 °F 30.22 in Calm   4.0 mph 56% 0.00 in meteobridge W/m2
11:04 54.7 °F 39.4 °F 30.27 in East 2.0 mph 4.0 mph 56% 0.00 in meteobridge W/m2
11:09 54.7 °F 39.4 °F 30.28 in Calm     56% 0.00 in meteobridge W/m2
11:14 54.7 °F 39.7 °F 30.27 in Calm     57% 0.00 in meteobridge W/m2
11:19 55.0 °F 40.1 °F 30.28 in Calm     57% 0.00 in meteobridge W/m2
11:24 55.4 °F 39.6 °F 30.28 in Calm     55% 0.00 in meteobridge W/m2
11:29 55.9 °F 40.5 °F 30.27 in East 0.9 mph 1.0 mph 56% 0.00 in meteobridge W/m2
11:34 57.0 °F 41.0 °F 30.27 in East 0.9 mph 1.0 mph 55% 0.00 in meteobridge W/m2
11:39 57.9 °F 40.5 °F 30.25 in ESE 4.0 mph 6.0 mph 52% 0.00 in meteobridge W/m2
11:44 58.3 °F 40.3 °F 30.26 in SSE 2.0 mph 5.0 mph 51% 0.00 in meteobridge W/m2
11:49 58.5 °F 40.5 °F 30.26 in SE 4.9 mph 5.0 mph 51% 0.00 in meteobridge W/m2
11:54 58.6 °F 41.0 °F 30.26 in Calm   4.0 mph 52% 0.00 in meteobridge W/m2
11:59 58.6 °F 41.0 °F 30.26 in Calm   6.0 mph 52% 0.00 in meteobridge W/m2
12:04 58.5 °F 40.8 °F 30.26 in ESE 2.0 mph 2.0 mph 52% 0.00 in meteobridge W/m2
12:09 58.5 °F 41.4 °F 30.27 in South 0.9 mph 4.0 mph 53% 0.00 in meteobridge W/m2
12:14 58.5 °F 40.8 °F 30.27 in Calm   4.0 mph 52% 0.00 in meteobridge W/m2
12:19 58.5 °F 40.8 °F 30.27 in East 0.9 mph 8.0 mph 52% 0.00 in meteobridge W/m2
12:24 58.6 °F 41.0 °F 30.26 in Calm   2.0 mph 52% 0.00 in meteobridge W/m2
12:29 59.2 °F 42.1 °F 30.26 in East 0.9 mph 1.0 mph 53% 0.00 in meteobridge W/m2
12:34 59.5 °F 41.4 °F 30.26 in SE 0.9 mph 6.0 mph 51% 0.00 in meteobridge W/m2
12:39 59.7 °F 41.5 °F 30.26 in SE 4.9 mph 7.0 mph 51% 0.00 in meteobridge W/m2
12:44 59.7 °F 41.5 °F 30.26 in ESE 2.0 mph 4.0 mph 51% 0.00 in meteobridge W/m2
12:49 59.7 °F 41.5 °F 30.26 in ESE 4.9 mph 8.0 mph 51% 0.00 in meteobridge W/m2
12:54 59.7 °F 41.0 °F 30.26 in SE 4.9 mph 7.0 mph 50% 0.00 in meteobridge W/m2
12:59 59.7 °F 41.5 °F 30.25 in SE 4.9 mph 5.0 mph 51% 0.00 in meteobridge W/m2
13:04 59.7 °F 41.5 °F 30.24 in ESE 2.0 mph 6.0 mph 51% 0.00 in meteobridge W/m2
13:09 59.7 °F 41.0 °F 30.24 in SE 0.9 mph 8.0 mph 50% 0.00 in meteobridge W/m2
13:14 59.7 °F 40.5 °F 30.24 in SSE 4.0 mph 8.0 mph 49% 0.00 in meteobridge W/m2
13:19 60.1 °F 41.4 °F 30.24 in Calm     50% 0.00 in meteobridge W/m2
13:24 60.3 °F 41.5 °F 30.24 in Calm     50% 0.00 in meteobridge W/m2
13:29 60.3 °F 40.5 °F 30.23 in Calm     48% 0.00 in meteobridge W/m2
13:34 60.3 °F 41.5 °F 30.23 in Calm     50% 0.00 in meteobridge W/m2
13:39 60.6 °F 41.9 °F 30.23 in Calm     50% 0.00 in meteobridge W/m2
13:44 61.0 °F 41.7 °F 30.23 in Calm     49% 0.00 in meteobridge W/m2
13:49 61.2 °F 41.9 °F 30.23 in Calm     49% 0.00 in meteobridge W/m2
13:54 61.0 °F 41.2 °F 30.23 in Calm     48% 0.00 in meteobridge W/m2
13:59 61.3 °F 41.5 °F 30.22 in Calm     48% 0.00 in meteobridge W/m2
14:04 61.7 °F 40.1 °F 30.22 in Calm     45% 0.00 in meteobridge W/m2
14:09 61.5 °F 40.5 °F 30.22 in Calm     46% 0.00 in meteobridge W/m2
14:14 61.5 °F 40.5 °F 30.22 in Calm     46% 0.00 in meteobridge W/m2
14:19 62.1 °F 42.1 °F 30.22 in Calm     48% 0.00 in meteobridge W/m2
14:24 62.2 °F 40.1 °F 30.22 in Calm     44% 0.00 in meteobridge W/m2
14:29 62.6 °F 40.5 °F 30.22 in Calm     44% 0.00 in meteobridge W/m2
14:34 63.0 °F 40.6 °F 30.21 in Calm     44% 0.00 in meteobridge W/m2
14:39 63.1 °F 41.5 °F 30.20 in Calm     45% 0.00 in meteobridge W/m2
14:44 63.1 °F 40.3 °F 30.21 in Calm     43% 0.00 in meteobridge W/m2
14:49 62.8 °F 39.9 °F 30.20 in Calm     43% 0.00 in meteobridge W/m2
14:54 62.8 °F 39.9 °F 30.20 in Calm     43% 0.00 in meteobridge W/m2
14:59 63.0 °F 40.6 °F 30.20 in Calm     44% 0.00 in meteobridge W/m2
15:04 63.0 °F 40.6 °F 30.20 in Calm     44% 0.00 in meteobridge W/m2
15:09 62.8 °F 41.2 °F 30.19 in Calm     45% 0.00 in meteobridge W/m2
15:14 62.8 °F 39.9 °F 30.19 in Calm     43% 0.00 in meteobridge W/m2
15:19 62.4 °F 39.6 °F 30.19 in Calm     43% 0.00 in meteobridge W/m2
15:24 62.8 °F 40.5 °F 30.19 in Calm     44% 0.00 in meteobridge W/m2
15:29 63.1 °F 40.8 °F 30.19 in Calm     44% 0.00 in meteobridge W/m2
15:34 63.3 °F 39.9 °F 30.19 in Calm     42% 0.00 in meteobridge W/m2
15:39 63.1 °F 40.3 °F 30.19 in Calm     43% 0.00 in meteobridge W/m2
15:44 63.0 °F 40.6 °F 30.19 in Calm     44% 0.00 in meteobridge W/m2
15:49 63.1 °F 40.8 °F 30.18 in Calm     44% 0.00 in meteobridge W/m2
15:54 63.1 °F 40.3 °F 30.18 in Calm     43% 0.00 in meteobridge W/m2
15:59 63.1 °F 40.3 °F 30.18 in Calm     43% 0.00 in meteobridge W/m2
16:04 63.1 °F 39.7 °F 30.18 in Calm     42% 0.00 in meteobridge W/m2
16:09 63.3 °F 40.5 °F 30.18 in Calm     43% 0.00 in meteobridge W/m2
16:14 63.3 °F 39.9 °F 30.18 in Calm     42% 0.00 in meteobridge W/m2
16:19 63.3 °F 41.0 °F 30.18 in Calm     44% 0.00 in meteobridge W/m2
16:24 63.3 °F 39.9 °F 30.18 in Calm     42% 0.00 in meteobridge W/m2
16:29 63.1 °F 40.3 °F 30.18 in Calm     43% 0.00 in meteobridge W/m2
16:34 63.0 °F 39.6 °F 30.18 in Calm     42% 0.00 in meteobridge W/m2
16:39 63.1 °F 39.7 °F 30.18 in Calm     42% 0.00 in meteobridge W/m2
16:44 63.1 °F 39.7 °F 30.18 in Calm     42% 0.00 in meteobridge W/m2
16:49 63.1 °F 40.3 °F 30.17 in Calm     43% 0.00 in meteobridge W/m2
16:54 63.1 °F 39.7 °F 30.17 in Calm     42% 0.00 in meteobridge W/m2
16:59 63.1 °F 39.0 °F 30.17 in Calm     41% 0.00 in meteobridge W/m2
17:04 63.3 °F 39.2 °F 30.17 in Calm     41% 0.00 in meteobridge W/m2
17:09 63.5 °F 39.9 °F 30.16 in Calm     42% 0.00 in meteobridge W/m2
17:14 63.7 °F 38.8 °F 30.17 in Calm     40% 0.00 in meteobridge W/m2
17:19 63.7 °F 40.1 °F 30.17 in Calm     42% 0.00 in meteobridge W/m2
17:24 63.5 °F 39.4 °F 30.17 in Calm     41% 0.00 in meteobridge W/m2
17:29 63.3 °F 39.2 °F 30.17 in Calm     41% 0.00 in meteobridge W/m2
17:34 63.1 °F 39.7 °F 30.17 in Calm     42% 0.00 in meteobridge W/m2
17:39 63.0 °F 39.6 °F 30.16 in Calm     42% 0.00 in meteobridge W/m2
17:44 62.8 °F 39.4 °F 30.16 in Calm     42% 0.00 in meteobridge W/m2
17:49 62.6 °F 39.2 °F 30.17 in Calm     42% 0.00 in meteobridge W/m2
17:54 62.4 °F 37.8 °F 30.17 in Calm     40% 0.00 in meteobridge W/m2
17:59 62.4 °F 38.5 °F 30.16 in Calm     41% 0.00 in meteobridge W/m2
18:04 62.4 °F 38.5 °F 30.16 in Calm     41% 0.00 in meteobridge W/m2
18:09 62.6 °F 38.5 °F 30.16 in Calm     41% 0.00 in meteobridge W/m2
18:14 62.4 °F 38.5 °F 30.16 in Calm     41% 0.00 in meteobridge W/m2
18:19 62.4 °F 39.6 °F 30.16 in Calm     43% 0.00 in meteobridge W/m2
18:24 62.2 °F 39.4 °F 30.16 in Calm     43% 0.00 in meteobridge W/m2
18:29 62.2 °F 38.8 °F 30.16 in Calm     42% 0.00 in meteobridge W/m2
18:34 62.2 °F 38.8 °F 30.16 in Calm     42% 0.00 in meteobridge W/m2
18:39 62.2 °F 37.6 °F 30.16 in Calm     40% 0.00 in meteobridge W/m2
18:44 62.2 °F 37.6 °F 30.16 in Calm     40% 0.00 in meteobridge W/m2
18:49 62.1 °F 37.4 °F 30.16 in Calm     40% 0.00 in meteobridge W/m2
18:54 62.1 °F 37.4 °F 30.16 in Calm     40% 0.00 in meteobridge W/m2
18:59 61.9 °F 37.9 °F 30.16 in Calm     41% 0.00 in meteobridge W/m2
19:04 61.7 °F 37.8 °F 30.16 in Calm     41% 0.00 in meteobridge W/m2
19:09 61.5 °F 37.6 °F 30.16 in Calm     41% 0.00 in meteobridge W/m2
19:14 61.5 °F 37.0 °F 30.16 in Calm     40% 0.00 in meteobridge W/m2
19:19 61.5 °F 37.6 °F 30.16 in Calm     41% 0.00 in meteobridge W/m2
19:24 61.3 °F 37.4 °F 30.16 in Calm     41% 0.00 in meteobridge W/m2
19:29 61.2 °F 37.2 °F 30.16 in Calm     41% 0.00 in meteobridge W/m2
19:34 61.0 °F 37.0 °F 30.16 in Calm     41% 0.00 in meteobridge W/m2
19:39 60.6 °F 37.4 °F 30.16 in Calm     42% 0.00 in meteobridge W/m2
19:44 60.4 °F 37.8 °F 30.16 in Calm     43% 0.00 in meteobridge W/m2
19:49 60.3 °F 37.8 °F 30.16 in Calm     43% 0.00 in meteobridge W/m2
19:54 60.1 °F 37.6 °F 30.16 in Calm     43% 0.00 in meteobridge W/m2
19:59 59.9 °F 38.5 °F 30.16 in Calm     45% 0.00 in meteobridge W/m2
20:04 59.7 °F 38.3 °F 30.16 in Calm     45% 0.00 in meteobridge W/m2
20:09 59.5 °F 38.1 °F 30.16 in Calm     45% 0.00 in meteobridge W/m2
20:14 59.5 °F 37.6 °F 30.16 in Calm     44% 0.00 in meteobridge W/m2
20:19 59.4 °F 37.9 °F 30.16 in Calm     45% 0.00 in meteobridge W/m2
20:24 59.4 °F 37.4 °F 30.16 in Calm     44% 0.00 in meteobridge W/m2
20:29 59.4 °F 37.4 °F 30.16 in Calm     44% 0.00 in meteobridge W/m2
20:34 59.4 °F 36.9 °F 30.16 in Calm     43% 0.00 in meteobridge W/m2
20:39 59.2 °F 36.7 °F 30.16 in Calm     43% 0.00 in meteobridge W/m2
20:44 59.0 °F 37.0 °F 30.16 in Calm     44% 0.00 in meteobridge W/m2
20:49 58.8 °F 37.0 °F 30.16 in Calm     44% 0.00 in meteobridge W/m2
20:54 58.8 °F 37.0 °F 30.16 in Calm     44% 0.00 in meteobridge W/m2
20:59 58.8 °F 37.0 °F 30.16 in Calm     44% 0.00 in meteobridge W/m2
21:04 58.6 °F 36.9 °F 30.16 in Calm     44% 0.00 in meteobridge W/m2
21:09 58.6 °F 37.4 °F 30.16 in Calm     45% 0.00 in meteobridge W/m2
21:14 58.3 °F 37.0 °F 30.16 in Calm     45% 0.00 in meteobridge W/m2
21:19 58.3 °F 37.6 °F 30.17 in Calm     46% 0.00 in meteobridge W/m2
21:24 57.9 °F 36.1 °F 30.17 in Calm     44% 0.00 in meteobridge W/m2
21:29 57.9 °F 36.1 °F 30.17 in Calm     44% 0.00 in meteobridge W/m2
21:34 57.9 °F 35.6 °F 30.17 in Calm     43% 0.00 in meteobridge W/m2
21:39 57.9 °F 35.6 °F 30.17 in Calm     43% 0.00 in meteobridge W/m2
21:44 58.1 °F 35.1 °F 30.17 in Calm     42% 0.00 in meteobridge W/m2
21:49 57.9 °F 34.9 °F 30.17 in Calm     42% 0.00 in meteobridge W/m2
21:54 57.9 °F 34.9 °F 30.17 in Calm     42% 0.00 in meteobridge W/m2
21:59 58.1 °F 35.1 °F 30.17 in Calm     42% 0.00 in meteobridge W/m2
22:04 58.1 °F 35.1 °F 30.17 in Calm     42% 0.00 in meteobridge W/m2
22:09 57.9 °F 34.9 °F 30.17 in Calm     42% 0.00 in meteobridge W/m2
22:14 57.9 °F 34.9 °F 30.17 in Calm     42% 0.00 in meteobridge W/m2
22:19 57.9 °F 34.9 °F 30.17 in Calm     42% 0.00 in meteobridge W/m2
22:24 57.9 °F 34.9 °F 30.17 in Calm     42% 0.00 in meteobridge W/m2
22:29 57.7 °F 34.9 °F 30.17 in Calm     42% 0.00 in meteobridge W/m2
22:34 57.7 °F 34.9 °F 30.17 in Calm     42% 0.00 in meteobridge W/m2
22:39 57.7 °F 34.9 °F 30.17 in Calm     42% 0.00 in meteobridge W/m2
22:44 57.6 °F 35.2 °F 30.17 in Calm     43% 0.00 in meteobridge W/m2
22:49 57.6 °F 35.2 °F 30.17 in Calm     43% 0.00 in meteobridge W/m2
22:54 57.6 °F 35.2 °F 30.17 in Calm     43% 0.00 in meteobridge W/m2
22:59 57.6 °F 35.8 °F 30.17 in Calm     44% 0.00 in meteobridge W/m2
23:04 57.4 °F 35.6 °F 30.18 in Calm     44% 0.00 in meteobridge W/m2
23:09 57.4 °F 35.6 °F 30.17 in Calm     44% 0.00 in meteobridge W/m2
23:14 57.4 °F 36.1 °F 30.17 in Calm     45% 0.00 in meteobridge W/m2
23:19 57.4 °F 36.1 °F 30.17 in Calm     45% 0.00 in meteobridge W/m2
23:24 57.4 °F 36.7 °F 30.17 in Calm     46% 0.00 in meteobridge W/m2
23:29 57.6 °F 36.9 °F 30.17 in Calm     46% 0.00 in meteobridge W/m2
23:34 57.6 °F 37.4 °F 30.17 in Calm     47% 0.00 in meteobridge W/m2
23:39 57.6 °F 37.4 °F 30.18 in Calm     47% 0.00 in meteobridge W/m2
23:44 57.6 °F 37.4 °F 30.18 in Calm     47% 0.00 in meteobridge W/m2
23:49 57.6 °F 37.9 °F 30.18 in Calm     48% 0.00 in meteobridge W/m2
23:54 57.6 °F 39.0 °F 30.18 in Calm     50% 0.00 in meteobridge W/m2
23:59 57.7 °F 38.7 °F 30.18 in Calm     49% 0.00 in meteobridge W/m2
EllijayWeather
Compliments of Weather Underground - 2.5 mb